Time;durP1;ratioP1;P1;durP2;ratioP2;P2;SDS_P1;SDS_P2;PMS_P1;PMS_P2;Temp;Humidity;BMP_temperature;BMP_pressure;BME280_temperature;BME280_humidity;BME280_pressure;Samples;Min_cycle;Max_cycle;Signal;HPM_P1;HPM_P2
2021/06/18 00:01:16;;;;;;;2.53;2.28;;;19.50;99.90;;;;;;5079306;28;20174;-77
2021/06/18 00:03:42;;;;;;;2.80;2.55;;;19.50;99.90;;;;;;5077734;28;20184;-78
2021/06/18 00:06:08;;;;;;;2.85;2.65;;;19.50;99.90;;;;;;5079810;28;20232;-77
2021/06/18 00:08:35;;;;;;;4.43;2.88;;;19.40;99.90;;;;;;5079377;28;20183;-76
2021/06/18 00:11:01;;;;;;;2.50;2.30;;;19.40;99.90;;;;;;5081547;28;20188;-76
2021/06/18 00:13:27;;;;;;;2.85;2.58;;;19.40;99.90;;;;;;5061716;28;20174;-77
2021/06/18 00:15:53;;;;;;;2.67;2.47;;;19.40;99.90;;;;;;5077533;28;20610;-78
2021/06/18 00:18:19;;;;;;;2.30;2.10;;;19.40;99.90;;;;;;5081391;28;20561;-77
2021/06/18 00:20:44;;;;;;;2.83;2.50;;;19.40;99.90;;;;;;5061533;28;20272;-78
2021/06/18 00:23:10;;;;;;;3.65;2.70;;;19.50;99.90;;;;;;5063290;28;20197;-78
2021/06/18 00:25:35;;;;;;;2.63;2.42;;;19.40;99.90;;;;;;5079084;28;20182;-77
2021/06/18 00:28:01;;;;;;;2.90;2.67;;;19.40;99.90;;;;;;5078751;28;20649;-77
2021/06/18 00:30:26;;;;;;;2.58;2.38;;;19.40;99.90;;;;;;5079971;28;20225;-76
2021/06/18 00:32:52;;;;;;;3.17;2.88;;;19.40;99.90;;;;;;5078172;28;20184;-75
2021/06/18 00:35:18;;;;;;;3.03;2.33;;;19.40;99.90;;;;;;5079272;28;20181;-78
2021/06/18 00:37:43;;;;;;;3.20;2.80;;;19.30;99.90;;;;;;5079198;28;20208;-77
2021/06/18 00:40:09;;;;;;;2.63;2.42;;;19.30;99.90;;;;;;5080832;28;20208;-78
2021/06/18 00:42:35;;;;;;;2.72;2.30;;;19.20;99.90;;;;;;5080339;28;20193;-76
2021/06/18 00:45:00;;;;;;;3.15;2.88;;;19.20;99.90;;;;;;5079088;28;20208;-77
2021/06/18 00:47:27;;;;;;;2.60;2.40;;;19.20;99.90;;;;;;5082717;28;20200;-76
2021/06/18 00:49:55;;;;;;;2.65;2.45;;;19.10;99.90;;;;;;5082587;28;20235;-76
2021/06/18 00:52:21;;;;;;;2.70;2.47;;;19.10;99.90;;;;;;5082042;28;20181;-77
2021/06/18 00:54:48;;;;;;;2.88;2.67;;;19.00;99.90;;;;;;5080473;28;20184;-76
2021/06/18 00:57:16;;;;;;;3.63;2.70;;;18.90;99.90;;;;;;5086614;28;20204;-77
2021/06/18 00:59:42;;;;;;;2.95;2.75;;;18.90;99.90;;;;;;5064525;28;20181;-77
2021/06/18 01:02:08;;;;;;;3.20;2.70;;;18.90;99.90;;;;;;5081754;28;20254;-77
2021/06/18 01:04:35;;;;;;;2.72;2.50;;;18.90;99.90;;;;;;5080361;28;20177;-77
2021/06/18 01:07:11;;;;;;;3.05;2.72;;;18.90;99.90;;;;;;5082244;28;20210;-77
2021/06/18 01:10:02;;;;;;;2.92;2.72;;;18.90;99.90;;;;;;5061780;28;20288;-75
2021/06/18 01:12:35;;;;;;;3.63;2.33;;;18.90;99.90;;;;;;5066689;28;20173;-76
2021/06/18 01:15:13;;;;;;;3.70;2.90;;;18.90;99.90;;;;;;5064265;28;20523;-78
2021/06/18 01:17:50;;;;;;;2.90;2.53;;;18.90;99.90;;;;;;5081264;28;20695;-77
2021/06/18 01:20:31;;;;;;;4.13;3.20;;;18.80;99.90;;;;;;5081917;28;20729;-78
2021/06/18 01:22:59;;;;;;;3.78;3.47;;;18.80;99.90;;;;;;5084035;28;20185;-77
2021/06/18 01:25:49;;;;;;;3.33;3.03;;;18.80;99.90;;;;;;5081131;28;20191;-76
2021/06/18 01:28:43;;;;;;;5.28;3.17;;;18.70;99.90;;;;;;5064683;28;20208;-76
2021/06/18 01:31:14;;;;;;;3.53;3.22;;;18.70;99.90;;;;;;5081044;28;20188;-76
2021/06/18 01:33:43;;;;;;;3.38;3.10;;;18.70;99.90;;;;;;5086197;28;20177;-77
2021/06/18 01:36:12;;;;;;;3.22;2.95;;;18.70;99.90;;;;;;5079393;28;20204;-77
2021/06/18 01:38:40;;;;;;;2.85;2.65;;;18.70;99.90;;;;;;5084701;28;20181;-76
2021/06/18 01:41:10;;;;;;;3.13;2.80;;;18.70;99.90;;;;;;5057801;28;20189;-78
2021/06/18 01:43:36;;;;;;;4.15;3.15;;;18.70;99.90;;;;;;5078664;28;20208;-77
2021/06/18 01:46:04;;;;;;;3.22;2.63;;;18.70;99.90;;;;;;5081121;28;20208;-76
2021/06/18 01:48:30;;;;;;;2.72;2.53;;;18.70;99.90;;;;;;5076683;28;20178;-76
2021/06/18 01:50:56;;;;;;;4.25;3.17;;;18.70;99.90;;;;;;5077704;28;20188;-77
2021/06/18 01:53:24;;;;;;;3.03;2.70;;;18.60;99.90;;;;;;5079687;28;20188;-77
2021/06/18 01:55:51;;;;;;;2.85;2.63;;;18.60;99.90;;;;;;5080661;28;20191;-75
2021/06/18 01:58:19;;;;;;;3.05;2.65;;;18.70;99.90;;;;;;5080322;28;20181;-77
2021/06/18 02:00:51;;;;;;;3.78;3.00;;;18.70;99.90;;;;;;5078082;28;20595;-77
2021/06/18 02:03:25;;;;;;;3.60;3.28;;;18.70;99.90;;;;;;5077650;28;20590;-78
2021/06/18 02:05:53;;;;;;;3.20;2.90;;;18.60;99.90;;;;;;5063291;28;20687;-76
2021/06/18 02:08:21;;;;;;;3.70;3.38;;;18.50;99.90;;;;;;5079678;28;20181;-76
2021/06/18 02:10:50;;;;;;;4.13;2.78;;;18.50;99.90;;;;;;5063106;28;20217;-78
2021/06/18 02:13:17;;;;;;;3.30;2.80;;;18.50;99.90;;;;;;5077533;28;20246;-77
2021/06/18 02:15:45;;;;;;;3.20;2.58;;;18.50;99.90;;;;;;5075883;28;20184;-76
2021/06/18 02:18:14;;;;;;;4.05;3.03;;;18.50;99.90;;;;;;5080143;28;20292;-78
2021/06/18 02:20:42;;;;;;;3.88;3.53;;;18.50;99.90;;;;;;5081266;28;20189;-75
2021/06/18 02:23:09;;;;;;;3.45;3.15;;;18.50;99.90;;;;;;5063639;28;20687;-77
2021/06/18 02:25:37;;;;;;;4.22;3.38;;;18.50;99.90;;;;;;5081603;28;20223;-77
2021/06/18 02:28:04;;;;;;;6.43;4.05;;;18.40;99.90;;;;;;5078194;28;20269;-77
2021/06/18 02:30:29;;;;;;;3.72;3.35;;;18.30;99.90;;;;;;5057474;28;20228;-77
2021/06/18 02:32:57;;;;;;;3.08;2.85;;;18.30;99.90;;;;;;5076923;28;21171;-77
2021/06/18 02:35:23;;;;;;;3.83;3.47;;;18.30;99.90;;;;;;5073394;28;20298;-76
2021/06/18 02:37:49;;;;;;;3.88;3.53;;;18.30;99.90;;;;;;5075739;28;20199;-77
2021/06/18 02:40:15;;;;;;;4.95;4.43;;;18.30;99.90;;;;;;5074420;28;20246;-77
2021/06/18 02:42:41;;;;;;;3.88;3.55;;;18.20;99.90;;;;;;5075700;28;20228;-76
2021/06/18 02:45:07;;;;;;;4.43;4.03;;;18.20;99.90;;;;;;5057367;28;20268;-77
2021/06/18 02:47:44;;;;;;;3.67;3.33;;;18.20;99.90;;;;;;5075277;28;20213;-76
2021/06/18 02:50:44;;;;;;;3.95;3.63;;;18.20;99.90;;;;;;5073588;28;20208;-77
2021/06/18 02:53:27;;;;;;;4.35;3.95;;;18.20;99.90;;;;;;5043207;28;20276;-75
2021/06/18 02:56:02;;;;;;;5.78;4.50;;;18.30;99.90;;;;;;5073275;28;20209;-77
2021/06/18 02:58:44;;;;;;;4.95;4.38;;;18.40;99.90;;;;;;5056844;28;20196;-79
2021/06/18 03:01:10;;;;;;;4.55;4.10;;;18.40;99.90;;;;;;5059150;28;20457;-79
2021/06/18 03:03:41;;;;;;;5.80;5.20;;;18.50;99.90;;;;;;5075659;28;20832;-79
2021/06/18 03:06:08;;;;;;;6.15;5.07;;;18.50;99.90;;;;;;5073910;28;20220;-79
2021/06/18 03:08:40;;;;;;;5.63;4.53;;;18.60;99.90;;;;;;5058430;28;20188;-77
2021/06/18 03:11:06;;;;;;;6.32;4.57;;;18.70;99.90;;;;;;5076348;28;20170;-77
2021/06/18 03:13:38;;;;;;;4.72;4.32;;;18.70;99.90;;;;;;5076542;28;20174;-77
2021/06/18 03:16:06;;;;;;;4.03;3.65;;;18.70;99.90;;;;;;5074076;28;20208;-78
2021/06/18 03:18:32;;;;;;;4.95;4.45;;;18.80;99.90;;;;;;5075842;28;20214;-77
2021/06/18 03:21:00;;;;;;;5.00;4.18;;;18.80;99.90;;;;;;5075329;28;20276;-77
2021/06/18 03:23:28;;;;;;;4.72;4.25;;;18.80;99.90;;;;;;5075605;28;20348;-77
2021/06/18 03:25:54;;;;;;;4.75;4.35;;;18.90;99.90;;;;;;5058644;28;20211;-77
2021/06/18 03:28:23;;;;;;;5.65;4.35;;;18.80;99.90;;;;;;5074907;28;20702;-76
2021/06/18 03:30:49;;;;;;;4.40;3.78;;;18.80;99.90;;;;;;5062780;28;20669;-77
2021/06/18 03:33:17;;;;;;;4.60;4.20;;;18.80;99.90;;;;;;5062390;28;20280;-77
2021/06/18 03:35:45;;;;;;;5.43;4.65;;;18.90;99.90;;;;;;5081391;28;20232;-77
2021/06/18 03:38:11;;;;;;;6.43;4.10;;;18.90;99.90;;;;;;5081882;28;20510;-77
2021/06/18 03:40:39;;;;;;;5.72;4.80;;;18.90;99.90;;;;;;5081419;28;20663;-76
2021/06/18 03:43:05;;;;;;;4.78;4.38;;;18.90;99.90;;;;;;5083905;28;20177;-76
2021/06/18 03:45:31;;;;;;;6.00;4.80;;;18.80;99.90;;;;;;5078892;28;20587;-77
2021/06/18 03:47:59;;;;;;;4.97;4.47;;;18.80;99.90;;;;;;5078883;28;20185;-77
2021/06/18 03:50:26;;;;;;;5.30;4.80;;;18.80;99.90;;;;;;5078531;28;20618;-77
2021/06/18 03:52:51;;;;;;;5.07;4.57;;;18.80;99.90;;;;;;5081935;28;20234;-77
2021/06/18 03:55:17;;;;;;;4.70;4.20;;;18.80;99.90;;;;;;5084005;28;20877;-77
2021/06/18 03:57:51;;;;;;;5.80;4.07;;;18.80;99.90;;;;;;5083865;28;20201;-77
2021/06/18 04:00:18;;;;;;;4.40;4.00;;;18.80;99.90;;;;;;5063615;28;20239;-77
2021/06/18 04:02:45;;;;;;;4.00;3.60;;;18.80;99.90;;;;;;5078805;28;20658;-77
2021/06/18 04:05:15;;;;;;;6.00;4.18;;;19.00;99.90;;;;;;5082144;28;20632;-76
2021/06/18 04:07:52;;;;;;;8.00;4.05;;;19.00;99.90;;;;;;5079772;28;21130;-77
2021/06/18 04:10:18;;;;;;;4.30;3.90;;;19.10;99.90;;;;;;5078264;28;20258;-77
2021/06/18 04:12:45;;;;;;;4.38;3.83;;;19.10;99.90;;;;;;5081604;28;20238;-77
2021/06/18 04:15:12;;;;;;;4.15;3.75;;;19.20;99.90;;;;;;5082579;28;20203;-76
2021/06/18 04:17:40;;;;;;;4.68;3.42;;;19.20;99.90;;;;;;5078054;28;20674;-77
2021/06/18 04:20:07;;;;;;;4.38;3.97;;;19.30;99.90;;;;;;5086517;28;20173;-77
2021/06/18 04:22:33;;;;;;;3.60;3.30;;;19.40;99.90;;;;;;5080736;28;20293;-77
2021/06/18 04:24:58;;;;;;;4.10;3.70;;;20.00;99.90;;;;;;5079673;28;20554;-77
2021/06/18 04:27:24;;;;;;;3.45;3.00;;;21.10;99.90;;;;;;5088949;28;20205;-77
2021/06/18 04:29:51;;;;;;;4.28;3.13;;;22.20;99.90;;;;;;5080622;28;20197;-77
2021/06/18 04:32:17;;;;;;;3.58;3.28;;;22.90;99.90;;;;;;5082535;28;20208;-77
2021/06/18 04:34:42;;;;;;;4.47;2.97;;;23.60;99.90;;;;;;5075174;28;20226;-76
2021/06/18 04:37:08;;;;;;;3.78;3.33;;;24.40;99.90;;;;;;5079989;28;20209;-77
2021/06/18 04:39:33;;;;;;;3.67;3.38;;;25.20;99.90;;;;;;5073637;28;21074;-78
2021/06/18 04:42:01;;;;;;;3.88;3.58;;;25.70;99.90;;;;;;5078156;28;20225;-77
2021/06/18 04:44:27;;;;;;;3.38;3.08;;;26.50;99.90;;;;;;5083479;28;20176;-77
2021/06/18 04:46:53;;;;;;;4.20;3.45;;;27.00;99.90;;;;;;5060323;28;20201;-78
2021/06/18 04:49:19;;;;;;;3.75;3.45;;;27.50;99.90;;;;;;5059572;28;20220;-76
2021/06/18 04:51:44;;;;;;;4.43;3.58;;;27.70;99.90;;;;;;5082871;28;20234;-76
2021/06/18 04:54:11;;;;;;;3.67;3.38;;;27.60;99.90;;;;;;5081049;28;20188;-77
2021/06/18 04:56:40;;;;;;;3.75;3.45;;;28.00;99.90;;;;;;5076732;28;20262;-77
2021/06/18 04:59:06;;;;;;;4.30;3.90;;;28.30;99.90;;;;;;5078658;28;20291;-75
2021/06/18 05:01:32;;;;;;;4.15;3.70;;;28.70;99.90;;;;;;5081657;28;20264;-78
2021/06/18 05:03:58;;;;;;;4.68;4.07;;;28.40;99.90;;;;;;5082198;28;20182;-78
2021/06/18 05:06:24;;;;;;;4.57;4.18;;;28.00;99.90;;;;;;5080492;28;20296;-77
2021/06/18 05:08:51;;;;;;;3.55;3.25;;;28.20;99.90;;;;;;5074651;28;20714;-77
2021/06/18 05:11:20;;;;;;;4.78;4.35;;;28.30;99.90;;;;;;5079298;28;20216;-77
2021/06/18 05:13:45;;;;;;;4.90;4.28;;;28.40;99.90;;;;;;5080112;28;20179;-78
2021/06/18 05:16:11;;;;;;;4.78;4.35;;;27.80;99.90;;;;;;5072903;28;20213;-78
2021/06/18 05:18:37;;;;;;;4.82;4.32;;;28.30;99.90;;;;;;5081710;28;20209;-77
2021/06/18 05:21:03;;;;;;;4.18;3.60;;;28.80;99.90;;;;;;5079497;28;20182;-77
2021/06/18 05:23:28;;;;;;;4.70;4.30;;;29.30;99.90;;;;;;5060117;28;20256;-76
2021/06/18 05:25:54;;;;;;;4.50;4.18;;;29.60;99.90;;;;;;5063340;28;20208;-77
2021/06/18 05:28:19;;;;;;;5.18;4.68;;;30.00;99.90;;;;;;5079367;28;20188;-78
2021/06/18 05:30:45;;;;;;;5.18;4.65;;;30.20;99.90;;;;;;5080074;28;20577;-78
2021/06/18 05:33:11;;;;;;;4.85;4.43;;;29.50;99.90;;;;;;5059116;28;20199;-78
2021/06/18 05:35:38;;;;;;;4.47;4.10;;;29.00;99.90;;;;;;5075180;28;20178;-77
2021/06/18 05:38:03;;;;;;;4.53;4.13;;;29.70;99.90;;;;;;5078380;28;20177;-78
2021/06/18 05:40:29;;;;;;;5.80;4.32;;;30.30;99.90;;;;;;5079050;28;20200;-76
2021/06/18 05:42:55;;;;;;;4.40;3.92;;;30.80;99.90;;;;;;5075734;28;20208;-78
2021/06/18 05:45:21;;;;;;;4.88;4.03;;;31.00;99.90;;;;;;5063180;28;20181;-75
2021/06/18 05:47:46;;;;;;;5.00;4.60;;;31.40;99.90;;;;;;5086673;28;20237;-76
2021/06/18 05:50:12;;;;;;;5.00;4.60;;;31.50;99.90;;;;;;5074242;28;20209;-79
2021/06/18 05:52:38;;;;;;;4.72;4.32;;;31.40;99.90;;;;;;5072451;28;20184;-80
2021/06/18 05:55:04;;;;;;;4.88;4.47;;;31.60;99.90;;;;;;5072703;28;20230;-80
2021/06/18 05:57:30;;;;;;;4.55;4.25;;;31.90;99.90;;;;;;5072327;28;20196;-81
2021/06/18 05:59:55;;;;;;;5.30;4.90;;;31.40;99.90;;;;;;5056245;28;20196;-80
2021/06/18 06:02:23;;;;;;;5.28;4.78;;;31.50;99.90;;;;;;5058134;28;20191;-80
2021/06/18 06:04:49;;;;;;;4.78;4.38;;;31.90;99.90;;;;;;5073381;28;20804;-81
2021/06/18 06:07:14;;;;;;;4.80;4.30;;;31.70;99.90;;;;;;5056012;28;20219;-80
2021/06/18 06:09:40;;;;;;;4.60;4.20;;;31.30;99.90;;;;;;5073831;28;20204;-80
2021/06/18 06:12:06;;;;;;;4.38;3.97;;;31.40;99.90;;;;;;5072221;28;20176;-80
2021/06/18 06:14:32;;;;;;;4.70;4.30;;;31.70;99.90;;;;;;5073671;28;20726;-81
2021/06/18 06:16:57;;;;;;;4.18;3.88;;;32.20;99.90;;;;;;5071493;28;20205;-81
2021/06/18 06:19:23;;;;;;;5.25;3.70;;;32.80;99.10;;;;;;5058806;28;20235;-80
2021/06/18 06:21:48;;;;;;;4.60;4.20;;;33.10;97.80;;;;;;5055222;28;20249;-81
2021/06/18 06:24:14;;;;;;;4.85;4.45;;;32.60;97.20;;;;;;5072754;28;20208;-80
2021/06/18 06:26:40;;;;;;;4.18;3.83;;;31.90;96.90;;;;;;5053493;28;20205;-80
2021/06/18 06:29:06;;;;;;;4.40;4.10;;;32.10;97.20;;;;;;5073905;28;20193;-79
2021/06/18 06:31:32;;;;;;;4.50;4.10;;;32.20;97.90;;;;;;5054571;28;20198;-80
2021/06/18 06:33:57;;;;;;;3.92;3.63;;;32.10;98.90;;;;;;5040503;28;20184;-79
2021/06/18 06:36:23;;;;;;;4.38;3.97;;;32.40;98.30;;;;;;5073714;28;20201;-80
2021/06/18 06:38:50;;;;;;;4.18;3.88;;;32.30;97.70;;;;;;5073075;28;20664;-79
2021/06/18 06:41:15;;;;;;;3.90;3.60;;;31.70;97.80;;;;;;5055517;28;20723;-79
2021/06/18 06:43:41;;;;;;;5.43;4.05;;;31.00;99.90;;;;;;5054340;28;20185;-79
2021/06/18 06:46:07;;;;;;;4.00;3.70;;;30.10;99.90;;;;;;5070864;28;20287;-80
2021/06/18 06:48:32;;;;;;;5.43;3.80;;;29.70;99.90;;;;;;5055151;28;20238;-80
2021/06/18 06:50:58;;;;;;;4.00;3.60;;;29.60;99.90;;;;;;5076197;28;20185;-79
2021/06/18 06:53:24;;;;;;;5.10;4.60;;;29.70;99.90;;;;;;5070636;28;20256;-80
2021/06/18 06:55:50;;;;;;;5.43;4.30;;;29.70;99.90;;;;;;5074309;28;20721;-80
2021/06/18 06:58:16;;;;;;;4.47;3.67;;;29.50;99.90;;;;;;5067217;28;20186;-80
2021/06/18 07:00:42;;;;;;;6.13;4.20;;;29.30;99.90;;;;;;5074563;28;20244;-80
2021/06/18 07:03:07;;;;;;;3.78;3.47;;;29.30;99.90;;;;;;5076666;28;20184;-80
2021/06/18 07:05:33;;;;;;;3.63;3.33;;;28.90;99.90;;;;;;5070913;28;20259;-80
2021/06/18 07:07:58;;;;;;;4.10;3.72;;;29.10;99.90;;;;;;5051456;28;20250;-80
2021/06/18 07:10:24;;;;;;;5.07;3.80;;;28.80;99.90;;;;;;5078512;28;20217;-81
2021/06/18 07:12:49;;;;;;;3.80;3.50;;;28.70;99.90;;;;;;5071631;28;20216;-79
2021/06/18 07:15:15;;;;;;;4.15;3.85;;;28.60;99.90;;;;;;5074773;28;20181;-80
2021/06/18 07:17:41;;;;;;;9.00;4.30;;;28.90;99.90;;;;;;5077818;28;20492;-80
2021/06/18 07:20:07;;;;;;;4.80;4.38;;;28.80;99.90;;;;;;5048459;28;20280;-80
2021/06/18 07:22:33;;;;;;;3.97;3.67;;;28.90;99.90;;;;;;5067941;28;20188;-80
2021/06/18 07:24:59;;;;;;;4.20;3.80;;;29.00;99.90;;;;;;5070684;28;20204;-80
2021/06/18 07:27:26;;;;;;;4.50;4.10;;;28.60;99.90;;;;;;5075875;28;20201;-79
2021/06/18 07:29:53;;;;;;;3.88;3.58;;;28.70;99.90;;;;;;5049922;28;20212;-79
2021/06/18 07:32:19;;;;;;;3.90;3.60;;;28.90;99.90;;;;;;5070535;28;20185;-80
2021/06/18 07:34:44;;;;;;;4.05;3.70;;;29.00;99.90;;;;;;5075529;28;20184;-80
2021/06/18 07:37:10;;;;;;;5.00;3.72;;;29.10;99.90;;;;;;5069411;28;20239;-81
2021/06/18 07:39:36;;;;;;;4.07;3.78;;;29.00;99.90;;;;;;5068447;28;20185;-81
2021/06/18 07:42:02;;;;;;;4.10;3.80;;;29.20;99.90;;;;;;5040956;28;20570;-80
2021/06/18 07:44:27;;;;;;;6.15;4.00;;;29.30;99.90;;;;;;5074079;28;20189;-81
2021/06/18 07:46:53;;;;;;;4.40;4.03;;;29.60;99.90;;;;;;5053125;28;20200;-80
2021/06/18 07:49:19;;;;;;;3.75;3.45;;;29.50;99.90;;;;;;5077778;28;20215;-80
2021/06/18 07:51:44;;;;;;;3.22;3.03;;;29.30;99.90;;;;;;5073504;28;20516;-80
2021/06/18 07:54:10;;;;;;;3.78;3.47;;;29.30;99.90;;;;;;5075830;28;20637;-80
2021/06/18 07:56:44;;;;;;;3.70;3.40;;;29.50;99.90;;;;;;5071741;28;20292;-79
2021/06/18 07:59:11;;;;;;;4.25;3.92;;;29.50;99.90;;;;;;5052628;28;20547;-80
2021/06/18 08:01:37;;;;;;;4.68;3.67;;;29.40;99.90;;;;;;5053360;28;20211;-79
2021/06/18 08:04:03;;;;;;;4.40;4.00;;;29.50;99.90;;;;;;5069138;28;20176;-80
2021/06/18 08:06:28;;;;;;;4.50;4.10;;;29.70;99.90;;;;;;5070946;28;20212;-80
2021/06/18 08:08:54;;;;;;;4.30;3.90;;;29.80;99.90;;;;;;5055068;28;20319;-80
2021/06/18 08:11:19;;;;;;;7.95;3.90;;;30.00;99.90;;;;;;5070448;28;20313;-80
2021/06/18 08:13:45;;;;;;;4.45;4.03;;;30.20;99.90;;;;;;5072330;28;20185;-77
2021/06/18 08:16:11;;;;;;;4.50;3.42;;;30.20;99.90;;;;;;5066729;28;20201;-77
2021/06/18 08:18:38;;;;;;;3.90;3.60;;;30.40;99.90;;;;;;5076863;28;20192;-76
2021/06/18 08:21:05;;;;;;;3.90;3.60;;;30.50;99.90;;;;;;5070796;28;20173;-77
2021/06/18 08:23:31;;;;;;;3.88;3.58;;;30.70;99.90;;;;;;5077178;28;20280;-77
2021/06/18 08:25:57;;;;;;;3.95;3.65;;;30.60;99.90;;;;;;5074423;28;20786;-77
2021/06/18 08:28:23;;;;;;;4.07;3.78;;;30.40;99.90;;;;;;5078826;28;20173;-77
2021/06/18 08:30:49;;;;;;;3.88;3.45;;;30.50;99.90;;;;;;5075804;28;20572;-76
2021/06/18 08:33:14;;;;;;;4.22;3.92;;;30.70;99.90;;;;;;5077134;28;20552;-77
2021/06/18 08:35:40;;;;;;;4.20;3.85;;;30.90;99.90;;;;;;5076978;28;20264;-77
2021/06/18 08:38:06;;;;;;;4.85;4.45;;;30.80;99.90;;;;;;5062869;28;20192;-77
2021/06/18 08:40:33;;;;;;;5.03;4.28;;;30.40;99.90;;;;;;5073270;28;20280;-77
2021/06/18 08:42:59;;;;;;;5.93;4.10;;;30.40;99.90;;;;;;5075142;28;20407;-77
2021/06/18 08:45:25;;;;;;;5.18;3.95;;;30.60;99.90;;;;;;5076587;28;20265;-77
2021/06/18 08:47:51;;;;;;;4.43;4.13;;;30.80;99.90;;;;;;5074786;28;20683;-77
2021/06/18 08:50:25;;;;;;;4.90;4.50;;;31.00;99.90;;;;;;5077034;28;20979;-77
2021/06/18 08:53:01;;;;;;;5.30;4.85;;;31.00;99.90;;;;;;5078497;28;20639;-77
2021/06/18 08:55:30;;;;;;;5.03;4.50;;;31.10;99.90;;;;;;5074493;28;20180;-77
2021/06/18 08:57:58;;;;;;;5.50;5.00;;;31.20;99.90;;;;;;5074134;28;20204;-77
2021/06/18 09:00:25;;;;;;;5.13;4.72;;;31.20;99.90;;;;;;5073114;28;20193;-77
2021/06/18 09:02:51;;;;;;;4.53;4.22;;;31.20;99.90;;;;;;5071828;28;20189;-77
2021/06/18 09:05:17;;;;;;;5.00;4.60;;;31.10;99.90;;;;;;5052657;28;20182;-78
2021/06/18 09:08:02;;;;;;;5.00;4.60;;;31.00;99.90;;;;;;5069298;28;20202;-77
2021/06/18 09:10:37;;;;;;;5.07;4.68;;;31.20;99.90;;;;;;5080531;28;20430;-77
2021/06/18 09:13:16;;;;;;;5.40;5.00;;;31.20;99.90;;;;;;5075792;28;20219;-77
2021/06/18 09:15:53;;;;;;;5.25;4.80;;;31.30;99.90;;;;;;5072397;28;20188;-77
2021/06/18 09:18:36;;;;;;;5.55;5.15;;;31.30;99.90;;;;;;5067980;28;20173;-77
2021/06/18 09:21:02;;;;;;;5.50;5.05;;;31.30;99.90;;;;;;5068563;28;20189;-77
2021/06/18 09:23:35;;;;;;;5.88;5.13;;;31.40;99.90;;;;;;5074129;28;20189;-75
2021/06/18 09:26:22;;;;;;;5.43;5.03;;;31.50;99.90;;;;;;5073397;28;20280;-77
2021/06/18 09:29:08;;;;;;;5.65;5.10;;;31.60;99.90;;;;;;5053783;28;20654;-77
2021/06/18 09:31:49;;;;;;;5.90;5.50;;;31.60;99.90;;;;;;5075722;28;20231;-77
2021/06/18 09:37:39;;;;;;;5.50;5.00;;;31.90;99.90;;;;;;5071992;28;20595;-77
2021/06/18 09:40:12;;;;;;;5.55;5.15;;;32.20;99.90;;;;;;5055141;28;20198;-77
2021/06/18 09:42:59;;;;;;;5.68;4.50;;;32.20;99.90;;;;;;5072283;28;20185;-77
2021/06/18 09:45:36;;;;;;;5.05;4.68;;;32.00;99.90;;;;;;5071879;28;20185;-75
2021/06/18 09:48:22;;;;;;;6.07;5.47;;;32.20;99.90;;;;;;5071983;28;20856;-76
2021/06/18 09:51:03;;;;;;;5.82;5.28;;;32.50;99.90;;;;;;5076991;28;20747;-79
2021/06/18 09:53:51;;;;;;;5.60;4.88;;;32.80;99.90;;;;;;5044585;28;20243;-80
2021/06/18 09:56:19;;;;;;;6.47;5.57;;;32.50;99.90;;;;;;5076909;28;20646;-76
2021/06/18 09:58:45;;;;;;;5.28;4.88;;;32.30;99.90;;;;;;5073560;28;20285;-77
2021/06/18 10:01:17;;;;;;;5.00;4.60;;;32.50;99.90;;;;;;5076569;28;20197;-79
2021/06/18 10:04:11;;;;;;;7.20;4.95;;;32.50;99.90;;;;;;5055270;28;20304;-81
2021/06/18 10:06:39;;;;;;;5.00;4.60;;;32.60;99.90;;;;;;5068613;28;20212;-77
2021/06/18 10:09:07;;;;;;;5.13;4.72;;;32.70;99.90;;;;;;5053672;28;20228;-79
2021/06/18 10:11:35;;;;;;;5.78;5.28;;;32.80;99.90;;;;;;5055217;28;20601;-78
2021/06/18 10:14:02;;;;;;;5.20;4.70;;;32.90;99.90;;;;;;5053167;28;20185;-77
2021/06/18 10:16:28;;;;;;;5.50;5.00;;;32.80;99.90;;;;;;5069421;28;20212;-78
2021/06/18 10:18:58;;;;;;;4.95;4.55;;;32.70;99.90;;;;;;5036251;28;20216;-77
2021/06/18 10:21:24;;;;;;;5.72;5.13;;;32.80;99.90;;;;;;5072521;28;20551;-81
2021/06/18 10:23:56;;;;;;;5.07;4.63;;;33.00;99.90;;;;;;5053713;28;20193;-78
2021/06/18 10:26:23;;;;;;;5.03;4.65;;;33.20;99.90;;;;;;5056982;28;20197;-79
2021/06/18 10:28:53;;;;;;;5.28;4.85;;;33.30;99.90;;;;;;5042209;28;20170;-76
2021/06/18 10:31:35;;;;;;;4.93;4.57;;;33.40;99.90;;;;;;5056743;28;20182;-76
2021/06/18 10:34:12;;;;;;;4.88;4.47;;;33.40;99.90;;;;;;5072643;28;20187;-77
2021/06/18 10:36:38;;;;;;;4.70;4.40;;;33.60;99.90;;;;;;5058506;28;20211;-77
2021/06/18 10:39:15;;;;;;;4.10;3.80;;;33.40;99.90;;;;;;5073942;28;20185;-76
2021/06/18 10:41:53;;;;;;;5.13;4.05;;;33.20;99.90;;;;;;5059763;28;20214;-77
2021/06/18 10:44:37;;;;;;;4.10;3.80;;;32.80;99.90;;;;;;5065120;28;20181;-79
2021/06/18 10:47:30;;;;;;;4.45;4.05;;;32.70;99.90;;;;;;5058009;28;20202;-77
2021/06/18 10:49:58;;;;;;;4.10;3.70;;;32.80;99.90;;;;;;5074938;28;20239;-77
2021/06/18 10:52:25;;;;;;;4.35;4.05;;;33.10;99.90;;;;;;5054436;28;20234;-76
2021/06/18 10:54:58;;;;;;;4.97;4.57;;;33.10;99.90;;;;;;5072572;28;20222;-76
2021/06/18 10:57:25;;;;;;;4.70;4.30;;;32.80;99.90;;;;;;5071775;28;20211;-76
2021/06/18 10:59:53;;;;;;;4.68;4.10;;;32.70;99.90;;;;;;5056788;28;20216;-76
2021/06/18 11:02:25;;;;;;;4.75;3.92;;;32.60;99.90;;;;;;5072815;28;20185;-80
2021/06/18 11:04:52;;;;;;;3.97;3.67;;;32.90;99.90;;;;;;5070468;28;20184;-79
2021/06/18 11:07:24;;;;;;;4.35;3.92;;;32.90;99.90;;;;;;5048696;28;20205;-80
2021/06/18 11:09:54;;;;;;;4.57;4.10;;;33.20;99.90;;;;;;5055268;28;20201;-77
2021/06/18 11:12:23;;;;;;;3.92;3.63;;;33.50;99.90;;;;;;5056000;28;20195;-78
2021/06/18 11:15:20;;;;;;;3.90;3.60;;;33.60;99.90;;;;;;5054963;28;20182;-79
2021/06/18 11:17:53;;;;;;;4.22;3.90;;;33.40;99.90;;;;;;5022537;28;21251;-81
2021/06/18 11:20:33;;;;;;;4.30;4.00;;;33.40;99.90;;;;;;5072612;28;20173;-78
2021/06/18 11:23:07;;;;;;;4.55;4.15;;;33.70;99.90;;;;;;5055991;28;20177;-81
2021/06/18 11:25:41;;;;;;;3.58;3.30;;;33.70;99.90;;;;;;5074103;28;20255;-76
2021/06/18 11:28:19;;;;;;;3.38;3.08;;;33.30;99.90;;;;;;5073129;28;20226;-77
2021/06/18 11:30:52;;;;;;;3.97;3.67;;;33.60;98.60;;;;;;5056093;28;20710;-77
2021/06/18 11:33:38;;;;;;;3.45;3.13;;;34.00;99.90;;;;;;5055873;28;20177;-81
2021/06/18 11:36:05;;;;;;;3.65;3.35;;;34.10;97.80;;;;;;5073537;28;20255;-82
2021/06/18 11:38:31;;;;;;;4.25;3.60;;;33.60;99.20;;;;;;5072348;28;20177;-78
2021/06/18 11:41:00;;;;;;;3.80;3.50;;;33.70;98.70;;;;;;5054681;28;20200;-76
2021/06/18 11:43:27;;;;;;;3.10;2.90;;;33.90;99.80;;;;;;5071218;28;20595;-78
2021/06/18 11:45:53;;;;;;;3.50;3.30;;;33.60;97.40;;;;;;5052044;28;20720;-76
2021/06/18 11:48:19;;;;;;;3.28;3.03;;;33.40;95.60;;;;;;5070463;28;20554;-77
2021/06/18 11:50:46;;;;;;;3.70;3.40;;;33.00;95.10;;;;;;5052559;28;20205;-76
2021/06/18 11:53:13;;;;;;;3.95;3.38;;;33.00;96.20;;;;;;5054768;28;20182;-79
2021/06/18 11:55:40;;;;;;;3.40;3.10;;;33.40;97.20;;;;;;5070300;28;20201;-77
2021/06/18 11:58:06;;;;;;;3.67;2.97;;;33.40;93.00;;;;;;5076111;28;20264;-75
2021/06/18 12:00:35;;;;;;;3.92;3.53;;;33.30;97.90;;;;;;5074822;28;20673;-77
2021/06/18 12:03:03;;;;;;;3.38;3.17;;;33.40;97.20;;;;;;5076360;28;20514;-77
2021/06/18 12:05:37;;;;;;;4.05;3.20;;;33.20;96.00;;;;;;5074137;28;20266;-76
2021/06/18 12:08:14;;;;;;;3.78;3.47;;;33.20;94.30;;;;;;5068939;28;20225;-77
2021/06/18 12:10:40;;;;;;;3.58;3.03;;;33.20;96.20;;;;;;5075403;28;20200;-77
2021/06/18 12:13:05;;;;;;;4.05;3.65;;;33.40;96.10;;;;;;5070967;28;20242;-76
2021/06/18 12:15:33;;;;;;;4.43;2.83;;;33.40;96.30;;;;;;5055704;28;20651;-77
2021/06/18 12:18:01;;;;;;;3.85;3.55;;;33.50;96.70;;;;;;5073497;28;20613;-77
2021/06/18 12:20:33;;;;;;;3.53;3.22;;;33.90;95.50;;;;;;5073740;28;20181;-75
2021/06/18 12:23:00;;;;;;;3.22;2.80;;;33.60;94.20;;;;;;5075188;28;20184;-76
2021/06/18 12:25:27;;;;;;;3.70;3.40;;;33.60;94.00;;;;;;5074307;28;20180;-77
2021/06/18 12:27:58;;;;;;;3.90;3.28;;;33.50;94.50;;;;;;5059627;28;20215;-77
2021/06/18 12:30:25;;;;;;;3.45;3.25;;;33.90;96.40;;;;;;5056424;28;20758;-79
2021/06/18 12:32:51;;;;;;;3.33;3.03;;;33.80;91.60;;;;;;5074178;28;20177;-78
2021/06/18 12:35:21;;;;;;;2.53;2.40;;;33.90;92.00;;;;;;5074425;28;20177;-79
2021/06/18 12:37:52;;;;;;;3.30;3.00;;;33.90;88.20;;;;;;5072612;28;20244;-77
2021/06/18 12:40:27;;;;;;;2.83;2.63;;;33.80;91.80;;;;;;5058248;28;20183;-76
2021/06/18 12:42:55;;;;;;;3.47;3.17;;;33.90;90.00;;;;;;5053877;28;20185;-77
2021/06/18 12:45:31;;;;;;;2.97;2.78;;;34.00;90.50;;;;;;5070211;28;20306;-76
2021/06/18 12:48:20;;;;;;;2.83;2.58;;;34.30;85.80;;;;;;5079928;28;20219;-77
2021/06/18 12:50:51;;;;;;;2.58;2.38;;;34.60;88.70;;;;;;5075347;28;20724;-76
2021/06/18 12:53:27;;;;;;;2.90;2.70;;;34.60;77.20;;;;;;5073354;28;20177;-78
2021/06/18 12:55:52;;;;;;;3.72;2.90;;;34.60;78.50;;;;;;5074569;28;20574;-77
2021/06/18 12:58:23;;;;;;;3.25;2.95;;;34.60;78.80;;;;;;5078279;28;20215;-77
2021/06/18 13:00:57;;;;;;;3.92;3.30;;;34.70;81.10;;;;;;5074360;28;20550;-77